Forside
METAR-TAF:

METAR-TAF

Lufthavne :

Gogebic-Iron County Airport

Ironwood, Michigan, USA

Breddekreds: 46-32N, længdekreds: 090-08W, højde: 375 m

Aktuelle vejr

Denne rapport blev lavet for 30 minutter siden, kl. 07:56 UTC
Vind 3 kt fra sydsydvest
Temperatur -12°C
Fugtighed 85%
Tryk 1025 hPa
Sigt: 16.1 km
skyfri

METAR: KIWD 270756Z AUTO 20003KT 10SM CLR M12/M14 A3027 RMK AO2 SLP276 T11221139 FZRANO

Tid: 04:26 (08:26 UTC)

Vejrudsigter

Denne rapport blev lavet for 3 timer og 6 minutter siden, kl. 05:20 UTC
Foreløbig gælder fra 27 på 06 UTC til 28 på 06 UTC
Vind 6 kt fra sydsydvest
Sigt: 10 km
Nogle få skyer i en højde af 18000 ft
Fra 27 på 1300 UTC
Vind 14 kt fra sydsydvest med vindstød på up til 24 kt
Sigt: 10 km
Nogle få skyer i en højde af 20000 ft

TAF: KIWD 270520Z 2706/2806 21006KT P6SM FEW180 FM271300 21014G24KT P6SM FEW200

Vejrobservationer og prognoser fra mere end 4000 lufthavne (METAR og TAF).

De gule og røde prikker repræsenterer de meteorologiske stationer.

Flyt musen over at se navnet på stationen.

Så klik over at se vejr observationer og prognoser.

At skifte det kort: Klik på de grønne knapper med et sort kors for at zoome ind; på den grønne knap med en bindestreg for at zoome ud; eller på de grønne pile for tilstødende kort.


METAR-TAF: